Time;durP1;ratioP1;P1;durP2;ratioP2;P2;SDS_P1;SDS_P2;PMS_P1;PMS_P2;Temp;Humidity;BMP_temperature;BMP_pressure;BME280_temperature;BME280_humidity;BME280_pressure;Samples;Min_cycle;Max_cycle;Signal;HPM_P1;HPM_P2
2021/01/28 00:00:41;;;;;;;22.75;13.48;;;5.40;99.90;;;;;;4859718;29;20033;-84
2021/01/28 00:03:11;;;;;;;25.70;13.15;;;5.40;99.90;;;;;;4833614;29;20072;-87
2021/01/28 00:05:39;;;;;;;27.40;13.32;;;5.40;99.90;;;;;;4869138;29;20061;-86
2021/01/28 00:08:06;;;;;;;19.88;11.90;;;5.50;99.90;;;;;;4871163;29;20082;-86
2021/01/28 00:10:33;;;;;;;22.88;13.68;;;5.50;99.90;;;;;;4840215;29;20101;-86
2021/01/28 00:13:05;;;;;;;24.25;12.65;;;5.50;99.90;;;;;;4862050;29;20036;-86
2021/01/28 00:15:33;;;;;;;25.05;11.85;;;5.40;99.90;;;;;;4884070;29;20033;-86
2021/01/28 00:18:01;;;;;;;24.90;13.45;;;5.40;99.90;;;;;;4878840;29;20030;-86
2021/01/28 00:20:30;;;;;;;25.35;14.88;;;5.50;99.90;;;;;;4863497;29;20037;-87
2021/01/28 00:22:56;;;;;;;30.33;15.85;;;5.50;99.90;;;;;;4877439;29;20069;-86
2021/01/28 00:25:25;;;;;;;22.85;13.52;;;5.50;99.90;;;;;;4884801;29;20033;-86
2021/01/28 00:27:52;;;;;;;24.67;14.07;;;5.50;99.90;;;;;;4881954;29;20085;-86
2021/01/28 00:30:22;;;;;;;22.85;14.05;;;5.40;99.90;;;;;;4867276;29;20040;-85
2021/01/28 00:32:53;;;;;;;40.88;15.60;;;5.50;99.90;;;;;;4881754;29;20043;-86
2021/01/28 00:35:31;;;;;;;19.93;12.47;;;5.40;99.90;;;;;;4877202;29;20080;-87
2021/01/28 00:38:04;;;;;;;23.67;11.70;;;5.50;99.90;;;;;;4889456;29;20288;-87
2021/01/28 00:40:32;;;;;;;23.60;12.32;;;5.50;99.90;;;;;;4879103;29;20033;-87
2021/01/28 00:43:05;;;;;;;25.08;12.52;;;5.50;99.90;;;;;;4889953;29;20501;-86
2021/01/28 00:45:34;;;;;;;24.35;12.93;;;5.50;99.90;;;;;;4873620;29;20045;-85
2021/01/28 00:48:03;;;;;;;24.25;13.52;;;5.50;99.90;;;;;;4884897;29;20049;-85
2021/01/28 00:50:34;;;;;;;20.73;10.95;;;5.40;99.90;;;;;;4889375;29;20157;-86
2021/01/28 00:53:00;;;;;;;24.73;12.27;;;5.50;99.90;;;;;;4865033;29;20065;-86
2021/01/28 00:55:28;;;;;;;20.98;11.55;;;5.50;99.90;;;;;;4862637;29;20045;-86
2021/01/28 00:57:54;;;;;;;23.98;12.48;;;5.50;99.90;;;;;;4969313;23;20615;-86
2021/01/28 01:00:26;;;;;;;20.42;11.73;;;5.50;99.90;;;;;;4957047;29;20031;-86
2021/01/28 01:02:51;;;;;;;20.02;10.63;;;5.50;99.90;;;;;;4942222;28;20050;-86
2021/01/28 01:05:29;;;;;;;23.95;11.10;;;5.50;99.90;;;;;;4942446;28;20051;-86
2021/01/28 01:07:56;;;;;;;19.85;9.48;;;5.40;99.90;;;;;;4936329;28;20019;-87
2021/01/28 01:10:45;;;;;;;19.98;9.40;;;5.50;99.90;;;;;;4944234;28;20110;-86
2021/01/28 01:13:16;;;;;;;19.35;9.52;;;5.50;99.90;;;;;;4924708;29;20079;-86
2021/01/28 01:15:42;;;;;;;17.40;10.20;;;5.50;99.90;;;;;;4928248;29;20079;-86
2021/01/28 01:18:13;;;;;;;20.15;10.98;;;5.50;99.90;;;;;;4940980;29;20031;-85
2021/01/28 01:20:40;;;;;;;17.02;9.73;;;5.50;99.90;;;;;;4959298;29;20078;-86
2021/01/28 01:23:08;;;;;;;19.17;9.20;;;5.60;99.90;;;;;;4943404;28;20047;-86
2021/01/28 01:25:34;;;;;;;18.48;9.50;;;5.50;99.90;;;;;;4959942;28;20020;-86
2021/01/28 01:28:03;;;;;;;21.20;9.98;;;5.50;99.90;;;;;;4942390;28;20032;-87
2021/01/28 01:30:28;;;;;;;22.10;9.57;;;5.60;99.90;;;;;;4941657;28;20012;-86
2021/01/28 01:32:54;;;;;;;20.50;10.57;;;5.60;99.90;;;;;;4941741;28;20406;-89
2021/01/28 01:35:22;;;;;;;20.95;9.90;;;5.60;99.90;;;;;;4928550;29;20016;-91
2021/01/28 01:37:54;;;;;;;19.45;9.73;;;5.50;99.90;;;;;;4939463;29;20035;-86
2021/01/28 01:40:27;;;;;;;19.40;9.68;;;5.60;99.90;;;;;;4959936;28;20054;-86
2021/01/28 01:42:54;;;;;;;22.02;9.75;;;5.40;99.90;;;;;;4958827;29;20035;-87
2021/01/28 01:45:45;;;;;;;18.40;9.13;;;5.50;99.90;;;;;;4938656;28;20035;-85
2021/01/28 01:48:36;;;;;;;19.90;9.68;;;5.50;99.90;;;;;;4835578;29;20121;-86
2021/01/28 01:51:14;;;;;;;21.92;8.80;;;5.50;99.90;;;;;;4836832;29;20049;-86
2021/01/28 01:54:04;;;;;;;16.80;7.55;;;5.40;99.90;;;;;;4829512;29;20038;-85
2021/01/28 01:56:33;;;;;;;19.90;8.57;;;5.40;99.90;;;;;;4837049;29;20513;-86
2021/01/28 01:59:16;;;;;;;15.52;8.63;;;5.50;99.90;;;;;;4836613;29;20174;-86
2021/01/28 02:01:47;;;;;;;14.80;8.63;;;5.40;99.90;;;;;;4828032;29;20030;-87
2021/01/28 02:04:15;;;;;;;17.55;9.10;;;5.40;99.90;;;;;;4842304;29;20071;-87
2021/01/28 02:06:44;;;;;;;18.95;8.45;;;5.40;99.90;;;;;;4842688;29;20043;-85
2021/01/28 02:09:12;;;;;;;17.27;8.77;;;5.50;99.90;;;;;;4840766;29;20045;-86
2021/01/28 02:11:42;;;;;;;15.00;7.68;;;5.40;99.90;;;;;;4841132;29;20128;-87
2021/01/28 02:14:12;;;;;;;16.00;8.63;;;5.40;99.90;;;;;;4843364;29;20050;-87
2021/01/28 02:17:03;;;;;;;16.00;8.73;;;5.40;99.90;;;;;;4838084;29;20108;-88
2021/01/28 02:19:46;;;;;;;8.85;5.00;;;5.40;99.90;;;;;;4823689;29;20050;-87
2021/01/28 02:22:20;;;;;;;13.20;7.55;;;5.40;99.90;;;;;;4828211;29;20027;-86
2021/01/28 02:25:25;;;;;;;22.02;8.63;;;5.40;99.90;;;;;;4834802;29;20037;-87
2021/01/28 02:27:57;;;;;;;14.82;7.85;;;5.40;99.90;;;;;;4879661;29;20033;-85
2021/01/28 02:30:25;;;;;;;27.33;9.98;;;5.40;99.90;;;;;;4887054;29;20032;-86
2021/01/28 02:32:56;;;;;;;15.98;6.88;;;5.40;99.90;;;;;;4910156;29;20017;-87
2021/01/28 02:35:33;;;;;;;12.57;7.72;;;5.40;99.90;;;;;;4903397;29;20465;-87
2021/01/28 02:38:02;;;;;;;9.27;6.10;;;5.40;99.90;;;;;;4857499;29;20128;-88
2021/01/28 02:40:32;;;;;;;13.65;7.25;;;5.40;99.90;;;;;;4853558;29;20381;-88
2021/01/28 02:43:07;;;;;;;13.02;6.65;;;5.30;99.90;;;;;;4855249;29;20117;-88
2021/01/28 02:45:36;;;;;;;15.35;5.72;;;5.40;99.90;;;;;;4855063;29;20192;-88
2021/01/28 02:48:07;;;;;;;13.45;5.20;;;5.30;99.90;;;;;;4860262;29;20467;-87
2021/01/28 02:50:33;;;;;;;10.73;5.10;;;5.30;99.90;;;;;;4862151;29;20068;-87
2021/01/28 02:53:03;;;;;;;14.90;6.50;;;5.40;99.90;;;;;;4899970;29;20056;-86
2021/01/28 02:55:33;;;;;;;10.57;6.50;;;5.30;99.90;;;;;;4896728;29;20408;-87
2021/01/28 02:58:01;;;;;;;13.27;5.78;;;5.30;99.90;;;;;;4895172;29;20049;-86
2021/01/28 03:00:33;;;;;;;10.25;5.82;;;5.30;99.90;;;;;;4889978;29;20041;-87
2021/01/28 03:03:06;;;;;;;11.35;4.75;;;5.20;99.90;;;;;;4925604;29;20042;-87
2021/01/28 03:05:35;;;;;;;11.05;5.68;;;5.20;99.90;;;;;;4938750;29;20417;-86
2021/01/28 03:08:06;;;;;;;7.57;5.20;;;5.20;99.90;;;;;;4927251;29;20063;-87
2021/01/28 03:10:32;;;;;;;9.93;4.82;;;5.20;99.90;;;;;;4928644;29;20027;-87
2021/01/28 03:13:00;;;;;;;9.55;5.07;;;5.10;99.90;;;;;;4938553;29;20046;-86
2021/01/28 03:15:30;;;;;;;10.90;5.45;;;5.20;99.90;;;;;;4931271;29;20378;-87
2021/01/28 03:17:59;;;;;;;9.38;5.32;;;5.20;99.90;;;;;;4936557;29;20114;-87
2021/01/28 03:20:28;;;;;;;15.85;6.00;;;5.20;99.90;;;;;;4917149;29;20068;-88
2021/01/28 03:22:55;;;;;;;13.95;7.93;;;5.20;99.90;;;;;;4903081;29;20042;-87
2021/01/28 03:25:23;;;;;;;13.48;6.50;;;5.20;99.90;;;;;;4930123;29;20039;-87
2021/01/28 03:27:49;;;;;;;15.70;7.05;;;5.20;99.90;;;;;;4936413;29;20035;-87
2021/01/28 03:30:25;;;;;;;17.05;7.13;;;5.20;99.90;;;;;;4922816;29;20047;-87
2021/01/28 03:32:51;;;;;;;19.63;8.43;;;5.10;99.90;;;;;;4938343;29;20042;-85
2021/01/28 03:35:20;;;;;;;12.30;7.63;;;5.10;99.90;;;;;;4938021;29;20036;-86
2021/01/28 03:37:46;;;;;;;18.20;8.05;;;5.10;99.90;;;;;;4932307;29;20027;-85
2021/01/28 03:40:13;;;;;;;16.45;7.10;;;5.10;99.90;;;;;;4933553;29;20091;-85
2021/01/28 03:42:39;;;;;;;15.98;7.72;;;5.10;99.90;;;;;;4919253;29;20063;-85
2021/01/28 03:45:09;;;;;;;12.95;7.45;;;5.00;99.90;;;;;;4942102;29;20036;-85
2021/01/28 03:47:37;;;;;;;15.23;7.78;;;5.10;99.90;;;;;;4915177;29;20051;-86
2021/01/28 03:50:05;;;;;;;17.10;9.10;;;5.10;99.90;;;;;;4931255;29;20453;-87
2021/01/28 03:52:34;;;;;;;14.50;8.52;;;5.10;99.90;;;;;;4931691;29;20148;-87
2021/01/28 03:55:01;;;;;;;14.68;7.32;;;5.00;99.90;;;;;;4937057;29;20035;-87
2021/01/28 03:57:26;;;;;;;16.60;8.52;;;5.00;99.90;;;;;;4917869;29;20035;-87
2021/01/28 03:59:55;;;;;;;13.90;7.53;;;4.90;99.90;;;;;;4949322;28;20032;-87
2021/01/28 04:02:25;;;;;;;14.68;8.00;;;4.90;99.90;;;;;;4933904;28;20043;-87
2021/01/28 04:04:53;;;;;;;12.93;7.05;;;4.90;99.90;;;;;;4916433;29;20028;-87
2021/01/28 04:07:19;;;;;;;15.30;7.88;;;4.90;99.90;;;;;;4919956;29;20023;-87
2021/01/28 04:09:44;;;;;;;12.85;7.35;;;4.90;99.90;;;;;;4932084;29;20145;-87
2021/01/28 04:12:12;;;;;;;15.18;8.00;;;4.80;99.90;;;;;;4938267;29;20120;-85
2021/01/28 04:14:38;;;;;;;14.18;8.20;;;4.80;99.90;;;;;;4887366;29;20040;-87
2021/01/28 04:17:06;;;;;;;13.18;8.00;;;4.80;99.90;;;;;;4918162;29;20101;-87
2021/01/28 04:19:37;;;;;;;14.52;8.15;;;4.80;99.90;;;;;;4913026;29;20529;-87
2021/01/28 04:22:02;;;;;;;13.25;7.95;;;4.80;99.90;;;;;;4897842;29;20249;-88
2021/01/28 04:24:28;;;;;;;15.18;7.68;;;4.80;99.90;;;;;;4880873;29;20029;-87
2021/01/28 04:26:56;;;;;;;13.20;7.10;;;4.80;99.90;;;;;;4880958;29;20051;-88
2021/01/28 04:29:22;;;;;;;13.05;7.18;;;4.80;99.90;;;;;;4865231;29;20029;-88
2021/01/28 04:31:47;;;;;;;14.85;7.65;;;4.70;99.90;;;;;;4894087;29;20052;-86
2021/01/28 04:34:14;;;;;;;15.52;7.50;;;4.70;99.90;;;;;;4880237;29;20025;-87
2021/01/28 04:36:42;;;;;;;13.15;7.30;;;4.80;99.90;;;;;;4896933;29;20036;-87
2021/01/28 04:39:08;;;;;;;12.75;7.55;;;5.20;99.90;;;;;;4890575;29;20120;-86
2021/01/28 04:41:40;;;;;;;12.10;7.43;;;4.70;99.90;;;;;;4897636;29;20570;-87
2021/01/28 04:44:07;;;;;;;13.77;7.47;;;4.80;99.90;;;;;;4897126;29;20028;-88
2021/01/28 04:46:47;;;;;;;12.68;7.07;;;4.70;99.90;;;;;;4880961;29;20038;-88
2021/01/28 04:49:16;;;;;;;13.35;8.23;;;4.70;99.90;;;;;;4889440;29;20301;-88
2021/01/28 04:51:46;;;;;;;15.07;8.45;;;4.70;99.90;;;;;;4897217;29;20044;-89
2021/01/28 04:54:35;;;;;;;18.08;8.32;;;4.70;99.90;;;;;;4900361;29;20132;-89
2021/01/28 04:57:08;;;;;;;16.05;8.68;;;4.70;99.90;;;;;;4899592;29;20047;-88
2021/01/28 04:59:37;;;;;;;13.00;8.10;;;4.60;99.90;;;;;;4924086;29;20142;-88
2021/01/28 05:02:09;;;;;;;16.83;8.57;;;4.70;99.90;;;;;;4917025;29;20036;-89
2021/01/28 05:04:43;;;;;;;12.50;8.02;;;4.60;99.90;;;;;;4901756;29;20396;-89
2021/01/28 05:07:22;;;;;;;14.13;9.00;;;4.60;99.90;;;;;;4917112;29;20051;-88
2021/01/28 05:10:28;;;;;;;13.93;7.97;;;5.00;99.90;;;;;;4900547;29;20095;-88
2021/01/28 05:12:59;;;;;;;16.80;9.52;;;4.60;99.90;;;;;;4854010;29;20040;-88
2021/01/28 05:15:33;;;;;;;15.75;8.82;;;4.60;99.90;;;;;;4915739;29;20063;-88
2021/01/28 05:18:03;;;;;;;14.20;8.57;;;4.60;99.90;;;;;;4903867;29;20111;-88
2021/01/28 05:20:34;;;;;;;13.95;8.57;;;4.60;99.90;;;;;;4909738;29;20131;-85
2021/01/28 05:23:17;;;;;;;17.30;10.63;;;4.60;99.90;;;;;;4908987;29;20433;-86
2021/01/28 05:25:44;;;;;;;15.55;7.65;;;4.50;99.90;;;;;;4916543;29;20046;-86
2021/01/28 05:28:48;;;;;;;16.85;8.68;;;4.50;99.90;;;;;;4921362;29;20091;-86
2021/01/28 05:31:25;;;;;;;16.73;8.55;;;4.50;99.90;;;;;;4876309;29;20051;-86
2021/01/28 05:33:51;;;;;;;14.93;8.70;;;5.00;99.90;;;;;;4858846;29;20042;-85
2021/01/28 05:36:22;;;;;;;17.38;8.80;;;4.50;99.90;;;;;;4868068;29;20105;-86
2021/01/28 05:38:56;;;;;;;15.57;7.57;;;4.50;99.90;;;;;;4882336;29;20161;-86
2021/01/28 05:41:33;;;;;;;14.35;8.32;;;4.50;99.90;;;;;;4857667;29;20033;-87
2021/01/28 05:44:22;;;;;;;14.82;8.57;;;4.50;99.90;;;;;;4891079;29;20044;-89
2021/01/28 05:47:09;;;;;;;17.65;9.07;;;4.50;99.90;;;;;;4865261;29;20074;-88
2021/01/28 05:49:43;;;;;;;13.30;8.25;;;4.50;99.90;;;;;;4878858;29;20082;-88
2021/01/28 05:52:27;;;;;;;13.68;8.05;;;4.50;99.90;;;;;;4846832;29;20041;-88
2021/01/28 05:55:21;;;;;;;17.13;9.05;;;4.50;99.90;;;;;;4862454;29;20075;-88
2021/01/28 05:58:11;;;;;;;14.23;8.38;;;4.50;99.90;;;;;;4873455;29;20064;-88
2021/01/28 06:01:01;;;;;;;14.77;7.72;;;4.50;99.90;;;;;;4863669;29;20103;-87
2021/01/28 06:03:41;;;;;;;16.23;8.82;;;4.50;99.90;;;;;;4881833;29;20029;-85
2021/01/28 06:06:36;;;;;;;15.70;8.73;;;4.50;99.90;;;;;;4892261;29;20034;-86
2021/01/28 06:09:22;;;;;;;16.48;8.80;;;4.50;99.90;;;;;;4934325;28;20028;-85
2021/01/28 06:12:21;;;;;;;17.05;8.77;;;4.50;99.90;;;;;;4878929;29;20069;-86
2021/01/28 06:15:18;;;;;;;14.52;8.80;;;4.50;99.90;;;;;;4891367;29;20025;-86
2021/01/28 06:17:46;;;;;;;21.25;9.85;;;4.50;99.90;;;;;;4899228;29;20047;-86
2021/01/28 06:20:49;;;;;;;15.43;9.10;;;4.50;99.90;;;;;;4900451;29;20049;-88
2021/01/28 06:23:36;;;;;;;15.30;8.10;;;4.50;99.90;;;;;;4898500;29;20040;-89
2021/01/28 06:26:17;;;;;;;14.05;8.35;;;4.50;99.90;;;;;;4892949;29;20040;-88
2021/01/28 06:29:12;;;;;;;16.20;8.60;;;4.50;99.90;;;;;;4886018;29;20108;-87
2021/01/28 06:32:20;;;;;;;19.02;9.95;;;4.50;99.90;;;;;;4874881;29;20033;-88
2021/01/28 06:35:08;;;;;;;16.92;8.38;;;4.30;99.90;;;;;;4882907;29;20085;-87
2021/01/28 06:37:39;;;;;;;15.52;9.10;;;4.50;99.90;;;;;;4898479;29;20052;-89
2021/01/28 06:40:12;;;;;;;17.08;8.68;;;4.50;99.90;;;;;;4889335;29;20077;-88
2021/01/28 06:43:02;;;;;;;16.15;8.73;;;4.50;99.90;;;;;;4863934;29;20048;-88
2021/01/28 06:45:32;;;;;;;16.83;8.00;;;4.50;99.90;;;;;;4873574;29;20129;-88
2021/01/28 06:48:15;;;;;;;15.75;8.80;;;4.50;99.90;;;;;;4884889;29;20048;-88
2021/01/28 06:51:03;;;;;;;15.77;8.80;;;4.50;99.90;;;;;;4923505;29;20031;-87
2021/01/28 06:53:53;;;;;;;13.10;8.18;;;4.50;99.90;;;;;;4917493;29;20024;-88
2021/01/28 06:56:40;;;;;;;16.27;8.73;;;4.40;99.90;;;;;;4920116;29;20043;-88
2021/01/28 06:59:36;;;;;;;14.00;7.95;;;4.40;99.90;;;;;;4882133;29;636581;-86
2021/01/28 07:02:14;;;;;;;13.45;7.60;;;4.40;99.90;;;;;;4923658;29;20445;-87
2021/01/28 07:05:01;;;;;;;13.23;7.60;;;4.40;99.90;;;;;;4867080;29;20037;-87
2021/01/28 07:07:38;;;;;;;18.95;9.48;;;4.50;99.90;;;;;;4867329;29;20041;-87
2021/01/28 07:10:16;;;;;;;16.20;9.00;;;4.40;99.90;;;;;;4881539;29;20396;-88
2021/01/28 07:12:48;;;;;;;12.68;7.10;;;4.40;99.90;;;;;;4877454;29;20045;-88
2021/01/28 07:15:17;;;;;;;;;;;4.50;99.90;;;;;;4867733;29;20048;-87
2021/01/28 07:17:56;;;;;;;16.33;9.43;;;4.40;99.90;;;;;;4867521;29;19972;-88
2021/01/28 07:21:05;;;;;;;13.65;7.45;;;4.50;99.90;;;;;;4845324;29;20054;-88
2021/01/28 07:23:36;;;;;;;11.07;7.10;;;4.40;99.90;;;;;;4773574;30;20450;-88
2021/01/28 07:26:18;;;;;;;15.57;7.75;;;4.40;99.90;;;;;;4774190;30;20036;-87
2021/01/28 07:28:48;;;;;;;13.15;7.18;;;4.40;99.90;;;;;;4768868;29;20130;-88
2021/01/28 07:31:44;;;;;;;12.30;6.97;;;4.40;99.90;;;;;;4793517;29;20031;-88
2021/01/28 07:34:14;;;;;;;20.33;7.55;;;4.40;99.90;;;;;;4817337;29;20042;-88
2021/01/28 07:36:49;;;;;;;13.55;7.70;;;4.40;99.90;;;;;;4800302;29;20062;-87
2021/01/28 07:39:47;;;;;;;13.15;7.07;;;4.50;99.90;;;;;;4797676;29;20124;-88
2021/01/28 07:42:27;;;;;;;11.73;7.10;;;4.50;99.90;;;;;;4809259;29;20047;-90
2021/01/28 07:44:59;;;;;;;12.13;6.57;;;4.50;99.90;;;;;;4795966;29;20073;-86
2021/01/28 07:47:30;;;;;;;11.48;7.50;;;4.50;99.90;;;;;;4802499;29;20047;-87
2021/01/28 07:50:32;;;;;;;10.85;6.35;;;4.50;99.90;;;;;;4808905;29;20032;-88
2021/01/28 07:53:48;;;;;;;11.75;6.90;;;4.50;99.90;;;;;;4855309;29;20045;-88
2021/01/28 07:56:35;;;;;;;11.20;6.05;;;4.50;99.90;;;;;;4848304;29;20057;-88
2021/01/28 08:01:56;;;;;;;10.60;5.68;;;4.50;99.90;;;;;;4968011;23;20046;-88
2021/01/28 08:04:33;;;;;;;10.63;5.95;;;4.60;99.90;;;;;;4961365;28;20084;-87
2021/01/28 08:07:03;;;;;;;14.45;6.90;;;4.50;99.90;;;;;;5000390;23;20069;-86
2021/01/28 08:09:29;;;;;;;9.63;5.63;;;4.60;99.90;;;;;;5011814;23;20063;-87
2021/01/28 08:11:58;;;;;;;11.95;5.80;;;4.60;99.90;;;;;;5093892;23;20055;-89
2021/01/28 08:14:32;;;;;;;14.43;7.30;;;4.70;99.90;;;;;;4982558;28;20050;-89
2021/01/28 08:17:01;;;;;;;7.90;5.63;;;4.70;99.90;;;;;;4968871;23;20140;-91
2021/01/28 08:19:36;;;;;;;13.20;4.97;;;4.70;99.90;;;;;;4948375;28;20015;-90
2021/01/28 08:22:16;;;;;;;11.07;5.50;;;4.70;99.90;;;;;;4935761;29;20020;-92
2021/01/28 08:24:53;;;;;;;10.35;4.65;;;4.80;99.90;;;;;;4943040;28;20027;-89
2021/01/28 08:27:30;;;;;;;7.38;4.13;;;4.70;99.90;;;;;;4943063;28;20043;-89
2021/01/28 08:30:22;;;;;;;10.70;6.68;;;4.70;99.90;;;;;;4960340;28;20079;-90
2021/01/28 08:32:58;;;;;;;7.55;5.15;;;4.70;99.90;;;;;;4940448;29;20040;-86
2021/01/28 08:41:48;;;;;;;;;;;;;;;;;;;;;
2021/01/28 08:44:27;;;;;;;;;;;;;;;;;;;;;
2021/01/28 08:47:26;;;;;;;6.28;3.72;;;5.40;99.90;;;;;;4877291;29;20137;-95
2021/01/28 08:50:50;;;;;;;7.43;4.15;;;4.90;99.90;;;;;;4875915;29;20049;-94
2021/01/28 08:56:44;;;;;;;9.20;4.30;;;4.80;99.90;;;;;;4872833;29;20032;-89
2021/01/28 09:47:18;;;;;;;4.53;3.65;;;5.10;99.90;;;;;;4936808;28;20063;-90
2021/01/28 09:49:57;;;;;;;7.22;3.85;;;5.10;99.90;;;;;;4932819;29;20032;-93
2021/01/28 09:52:34;;;;;;;5.60;3.40;;;5.00;99.90;;;;;;4920141;29;20126;-86
2021/01/28 09:55:05;;;;;;;7.20;4.03;;;5.10;99.90;;;;;;4924720;29;20040;-90
2021/01/28 09:57:30;;;;;;;8.20;4.45;;;5.10;99.90;;;;;;4918374;29;20079;-89
2021/01/28 09:59:58;;;;;;;9.68;4.93;;;5.10;99.90;;;;;;4935800;29;20059;-89
2021/01/28 10:03:21;;;;;;;6.88;4.53;;;5.20;99.90;;;;;;4922665;29;20092;-88
2021/01/28 10:06:09;;;;;;;5.75;3.90;;;5.30;99.90;;;;;;4880930;29;20062;-90
2021/01/28 10:09:29;;;;;;;7.88;4.35;;;5.10;99.90;;;;;;4928526;29;20154;-91
2021/01/28 10:12:30;;;;;;;7.53;4.60;;;5.30;99.90;;;;;;4877196;29;20045;-89
2021/01/28 10:15:01;;;;;;;7.43;4.70;;;5.20;99.90;;;;;;4887200;29;20060;-90
2021/01/28 10:20:27;;;;;;;;;;;;;;;;;;;;;
2021/01/28 10:23:12;;;;;;;;;;;;;;;;;;;;;
2021/01/28 10:25:52;;;;;;;9.02;4.53;;;5.30;99.90;;;;;;4806688;29;20059;-88
2021/01/28 10:28:29;;;;;;;7.03;4.53;;;5.40;99.90;;;;;;4813158;29;20051;-88
2021/01/28 10:31:21;;;;;;;6.13;3.83;;;5.50;99.90;;;;;;4814433;29;20062;-89
2021/01/28 10:38:00;;;;;;;;;;;;;;;;;;;;;
2021/01/28 10:40:49;;;;;;;;;;;;;;;;;;;;;
2021/01/28 10:43:23;;;;;;;6.18;4.38;;;5.70;99.90;;;;;;4811984;29;20113;-89
2021/01/28 10:45:54;;;;;;;7.65;3.50;;;5.80;99.90;;;;;;4833715;29;20050;-91
2021/01/28 10:48:22;;;;;;;4.60;3.20;;;5.80;99.90;;;;;;4795107;29;20049;-91
2021/01/28 10:51:11;;;;;;;;;;;;;;;;;;;;;
2021/01/28 10:53:39;;;;;;;7.25;3.80;;;6.00;99.90;;;;;;4841650;29;20090;-90
2021/01/28 10:56:07;;;;;;;5.35;3.97;;;6.10;99.90;;;;;;4832546;29;20054;-90
2021/01/28 10:58:40;;;;;;;6.85;3.53;;;6.10;99.90;;;;;;4841585;29;20100;-89
2021/01/28 11:01:21;;;;;;;7.47;3.53;;;6.40;99.90;;;;;;4873201;29;20084;-89
2021/01/28 11:03:48;;;;;;;6.20;3.85;;;6.10;99.90;;;;;;4876146;29;20075;-91
2021/01/28 11:06:21;;;;;;;8.77;4.45;;;6.10;99.90;;;;;;4836787;29;20040;-89
2021/01/28 11:08:58;;;;;;;6.90;4.75;;;6.20;99.90;;;;;;4896544;29;20032;-87
2021/01/28 11:11:37;;;;;;;5.80;4.25;;;6.30;99.90;;;;;;4866825;29;20054;-89
2021/01/28 11:14:03;;;;;;;8.20;5.25;;;6.30;99.90;;;;;;4884914;29;20071;-89
2021/01/28 11:19:53;;;;;;;;;;;6.30;99.90;;;;;;4913641;29;20084;-87
2021/01/28 11:22:28;;;;;;;4.20;3.13;;;6.30;99.90;;;;;;4891824;29;19918;-88
2021/01/28 11:25:04;;;;;;;;;;;;;;;;;;;;;
2021/01/28 11:27:31;;;;;;;5.88;3.67;;;6.40;99.90;;;;;;4862383;29;20052;-90
2021/01/28 11:29:58;;;;;;;5.13;3.03;;;6.10;99.90;;;;;;4895541;29;20032;-90
2021/01/28 11:32:46;;;;;;;6.28;3.28;;;6.50;99.90;;;;;;4892087;29;20056;-87
2021/01/28 11:35:12;;;;;;;7.65;4.10;;;6.50;99.90;;;;;;4886643;29;20028;-89
2021/01/28 11:37:50;;;;;;;5.13;3.65;;;6.50;99.90;;;;;;4886358;29;20096;-90
2021/01/28 11:40:50;;;;;;;;;;;;;;;;;;;;;
2021/01/28 11:43:48;;;;;;;7.72;4.40;;;6.40;99.90;;;;;;4904618;29;20102;-90
2021/01/28 11:46:14;;;;;;;5.40;3.67;;;6.40;99.90;;;;;;4890029;29;20047;-89
2021/01/28 11:48:52;;;;;;;5.78;3.40;;;6.40;99.90;;;;;;4909912;29;20047;-87
2021/01/28 11:51:23;;;;;;;5.35;3.72;;;6.50;99.90;;;;;;4926154;29;20425;-88
2021/01/28 11:53:50;;;;;;;5.38;3.58;;;6.30;99.90;;;;;;4922865;29;20016;-89
2021/01/28 11:56:32;;;;;;;;;;;;;;;;;;;;;
2021/01/28 11:59:11;;;;;;;6.38;3.80;;;6.50;99.90;;;;;;4960707;29;20038;-89
2021/01/28 12:01:40;;;;;;;5.20;3.67;;;6.60;99.90;;;;;;4926953;29;20051;-91
2021/01/28 12:04:46;;;;;;;8.27;4.78;;;6.60;99.90;;;;;;4952817;29;20035;-89
2021/01/28 12:07:31;;;;;;;5.95;4.13;;;6.70;99.90;;;;;;4923130;29;20091;-91
2021/01/28 12:13:22;;;;;;;;;;;;;;;;;;;;;
2021/01/28 12:15:59;;;;;;;7.05;4.53;;;7.00;99.90;;;;;;4895117;29;20067;-87
2021/01/28 12:18:29;;;;;;;9.32;4.82;;;6.90;99.90;;;;;;4908436;29;20063;-89
2021/01/28 12:20:55;;;;;;;6.70;4.10;;;6.80;99.90;;;;;;4903866;29;20130;-87
2021/01/28 12:23:21;;;;;;;7.22;4.53;;;6.70;99.90;;;;;;4898063;29;20457;-87
2021/01/28 12:25:52;;;;;;;6.30;4.50;;;6.70;99.90;;;;;;4905536;29;20044;-88
2021/01/28 12:31:40;;;;;;;5.32;4.00;;;6.70;99.90;;;;;;4920824;29;20042;-87
2021/01/28 12:34:06;;;;;;;7.95;5.32;;;6.60;99.90;;;;;;4912109;29;20057;-86
2021/01/28 12:36:32;;;;;;;10.38;6.18;;;6.60;99.90;;;;;;4905551;29;20048;-88
2021/01/28 12:39:00;;;;;;;6.90;4.50;;;6.70;99.90;;;;;;4963004;23;20063;-88
2021/01/28 12:41:26;;;;;;;9.02;4.70;;;6.70;99.90;;;;;;4960250;28;20049;-89
2021/01/28 12:43:52;;;;;;;7.22;4.80;;;6.60;99.90;;;;;;4942272;28;20039;-86
2021/01/28 12:46:18;;;;;;;6.97;4.90;;;6.50;99.90;;;;;;4958052;28;20024;-87
2021/01/28 12:48:45;;;;;;;6.03;4.38;;;6.60;99.90;;;;;;5027915;23;20063;-88
2021/01/28 12:51:14;;;;;;;6.95;4.55;;;6.60;99.90;;;;;;4941688;28;20107;-90
2021/01/28 12:54:03;;;;;;;7.07;5.20;;;6.60;99.90;;;;;;4918448;29;20043;-86
2021/01/28 12:56:33;;;;;;;6.00;4.18;;;6.60;99.90;;;;;;4888030;29;20065;-89
2021/01/28 12:58:59;;;;;;;5.05;3.92;;;6.60;99.90;;;;;;4873695;29;20116;-90
2021/01/28 13:01:25;;;;;;;5.97;4.28;;;6.70;99.90;;;;;;4879838;29;20033;-88
2021/01/28 13:03:55;;;;;;;6.72;4.57;;;6.70;99.90;;;;;;4906050;29;20104;-86
2021/01/28 13:06:34;;;;;;;;;;;;;;;;;;;;;
2021/01/28 13:09:03;;;;;;;5.47;4.28;;;6.90;99.90;;;;;;4904034;29;20056;-87
2021/01/28 13:11:31;;;;;;;6.20;4.40;;;6.70;99.90;;;;;;4899435;29;20068;-87
2021/01/28 13:13:57;;;;;;;8.77;5.43;;;6.70;99.90;;;;;;4900957;29;20109;-85
2021/01/28 13:16:25;;;;;;;7.28;5.30;;;6.80;99.90;;;;;;4904872;29;20069;-88
2021/01/28 13:18:52;;;;;;;7.68;5.40;;;6.80;99.90;;;;;;4888553;29;20041;-88
2021/01/28 13:21:18;;;;;;;7.68;5.10;;;6.80;99.90;;;;;;4852480;29;20037;-87
2021/01/28 13:24:08;;;;;;;7.55;4.97;;;6.70;99.90;;;;;;4868757;29;20334;-88
2021/01/28 13:26:36;;;;;;;6.68;4.65;;;6.70;99.90;;;;;;4893423;29;20059;-89
2021/01/28 13:29:09;;;;;;;7.15;4.93;;;6.70;99.90;;;;;;4898691;29;20037;-91
2021/01/28 13:32:04;;;;;;;6.78;4.82;;;6.70;99.90;;;;;;4852174;29;20169;-88
2021/01/28 13:34:30;;;;;;;7.63;5.65;;;7.00;99.90;;;;;;4889949;29;20124;-90
2021/01/28 13:37:45;;;;;;;7.65;5.15;;;6.20;99.90;;;;;;4900179;29;20514;-89
2021/01/28 13:40:19;;;;;;;6.35;5.30;;;6.80;99.90;;;;;;4908390;29;20119;-91
2021/01/28 13:42:50;;;;;;;11.57;6.10;;;6.90;99.90;;;;;;4906653;29;20072;-88
2021/01/28 13:45:37;;;;;;;;;;;;;;;;;;;;;
2021/01/28 13:48:08;;;;;;;9.45;5.10;;;7.00;99.90;;;;;;4923679;29;20109;-90
2021/01/28 13:50:39;;;;;;;8.50;5.88;;;7.00;99.90;;;;;;4927887;29;20592;-90
2021/01/28 13:53:08;;;;;;;6.70;4.37;;;6.90;99.90;;;;;;4933927;29;20607;-89
2021/01/28 13:55:36;;;;;;;7.03;5.28;;;7.00;99.90;;;;;;4922125;29;20096;-88
2021/01/28 13:58:03;;;;;;;10.50;6.93;;;7.00;99.90;;;;;;4923136;29;20028;-89
2021/01/28 16:31:39;;;;;;;7.93;5.50;;;7.00;99.90;;;;;;5454326;23;20048;-94
2021/01/28 16:34:05;;;;;;;7.68;4.97;;;7.00;99.90;;;;;;4891698;29;20068;-88
2021/01/28 16:36:52;;;;;;;9.20;5.70;;;7.00;99.90;;;;;;4873742;29;20040;-91
2021/01/28 16:39:20;;;;;;;7.18;4.63;;;6.90;99.90;;;;;;4855032;29;20120;-88
2021/01/28 16:41:59;;;;;;;7.88;5.20;;;7.10;99.90;;;;;;4887937;29;20067;-88
2021/01/28 16:44:27;;;;;;;8.68;5.53;;;7.00;99.90;;;;;;4888354;29;20337;-88
2021/01/28 16:47:04;;;;;;;7.57;5.53;;;7.00;99.90;;;;;;4888210;29;20167;-88
2021/01/28 16:49:30;;;;;;;7.95;5.63;;;7.20;99.90;;;;;;4873728;29;20045;-89
2021/01/28 16:51:58;;;;;;;6.43;4.43;;;6.90;99.90;;;;;;4878617;29;20038;-87
2021/01/28 16:54:24;;;;;;;8.63;5.57;;;6.90;99.90;;;;;;4897700;29;20080;-89
2021/01/28 16:56:50;;;;;;;9.80;5.55;;;6.90;99.90;;;;;;4896288;29;20036;-90
2021/01/28 16:59:19;;;;;;;10.10;6.22;;;6.90;99.90;;;;;;4855214;29;20045;-89
2021/01/28 17:01:53;;;;;;;10.77;5.60;;;6.90;99.90;;;;;;4887921;29;20024;-90
2021/01/28 17:04:21;;;;;;;15.32;9.57;;;7.00;99.90;;;;;;4852414;29;20111;-88
2021/01/28 17:06:51;;;;;;;14.68;6.45;;;6.90;99.90;;;;;;4882874;29;20047;-89
2021/01/28 17:09:17;;;;;;;8.38;5.72;;;6.80;99.90;;;;;;4902488;29;20036;-88
2021/01/28 17:12:02;;;;;;;8.30;5.45;;;6.80;99.90;;;;;;4908256;29;20020;-91
2021/01/28 17:14:42;;;;;;;8.05;5.88;;;6.80;99.90;;;;;;4883939;29;20033;-92
2021/01/28 17:17:10;;;;;;;12.95;7.43;;;6.80;99.90;;;;;;4904477;29;20036;-92
2021/01/28 17:19:37;;;;;;;8.90;5.40;;;6.80;99.90;;;;;;4883415;29;20068;-90
2021/01/28 17:22:06;;;;;;;10.18;5.88;;;6.80;99.90;;;;;;4869788;29;20043;-89
2021/01/28 17:24:32;;;;;;;8.93;5.50;;;7.00;99.90;;;;;;4853457;29;20033;-89
2021/01/28 17:26:59;;;;;;;7.20;5.57;;;6.70;99.90;;;;;;4874147;29;20045;-91
2021/01/28 17:29:28;;;;;;;8.27;5.82;;;6.70;99.90;;;;;;4881594;29;20448;-91
2021/01/28 17:31:54;;;;;;;10.43;5.88;;;6.60;99.90;;;;;;4879441;29;20053;-90
2021/01/28 17:34:24;;;;;;;8.38;4.72;;;6.70;99.90;;;;;;4872289;29;20048;-89